createdAt,value
2023-03-05T03:46:51.411Z,4.14
2023-03-05T03:49:24.862Z,4.16
2023-03-05T03:51:54.719Z,4.18
2023-03-05T03:54:22.758Z,4.22
2023-03-05T03:56:49.823Z,4.22
2023-03-05T03:59:16.907Z,4.24
2023-03-05T04:01:43.753Z,4.24
2023-03-05T04:04:13.057Z,4.24
2023-03-05T06:09:10.058Z,4.06
2023-03-05T06:11:38.599Z,4.12
2023-03-05T06:14:05.553Z,4.18
2023-03-05T06:16:32.527Z,4.23
2023-03-05T06:19:00.396Z,4.26
2023-03-05T06:21:27.340Z,4.31
2023-03-05T06:23:54.304Z,4.33
2023-03-05T06:26:22.565Z,4.35
2023-03-05T06:28:49.423Z,4.38
2023-03-05T06:31:22.435Z,4.41
2023-03-05T06:33:49.652Z,4.41
2023-03-05T06:36:19.149Z,4.44
2023-03-05T06:38:48.375Z,4.46
2023-03-05T06:41:18.461Z,4.38
2023-03-05T06:43:47.166Z,4.41
2023-03-05T06:46:20.055Z,4.40
2023-03-05T06:48:47.935Z,4.48
2023-03-05T06:51:24.859Z,4.50
2023-03-05T06:53:53.447Z,4.55
2023-03-05T06:56:21.336Z,4.58
2023-03-05T06:58:50.867Z,4.61
2023-03-05T07:01:18.958Z,4.68
2023-03-05T07:03:49.945Z,4.69
2023-03-05T07:06:16.953Z,4.72
2023-03-05T07:08:47.369Z,4.71
2023-03-05T07:11:19.407Z,4.81
2023-03-05T07:13:49.076Z,4.81
2023-03-05T07:16:22.704Z,5.04
2023-03-05T07:18:49.740Z,5.12
2023-03-05T07:21:20.130Z,5.16
2023-03-05T07:23:47.425Z,5.21
2023-03-05T07:26:14.725Z,5.27
2023-03-05T07:28:43.690Z,5.30
2023-03-05T07:31:27.590Z,5.38
2023-03-05T07:33:54.606Z,5.49
2023-03-05T07:36:21.711Z,5.54
2023-03-05T07:38:48.707Z,5.68
2023-03-05T07:41:21.452Z,5.78
2023-03-05T07:43:50.081Z,5.90
2023-03-05T07:46:19.629Z,6.01
2023-03-05T07:48:46.695Z,6.08
2023-03-05T07:51:17.237Z,6.30
2023-03-05T07:53:45.435Z,6.33
2023-03-05T07:56:12.761Z,6.41
2023-03-05T07:58:39.687Z,6.46
2023-03-05T08:01:14.110Z,6.37
2023-03-05T08:03:42.472Z,6.31
2023-03-05T08:06:10.888Z,6.29
2023-03-05T08:08:38.136Z,6.25
2023-03-05T08:11:11.902Z,6.29
2023-03-05T08:13:39.488Z,6.18
2023-03-05T08:16:15.688Z,6.30
2023-03-05T08:18:42.924Z,6.28
2023-03-05T08:21:27.640Z,6.36
2023-03-05T08:23:54.469Z,6.47
2023-03-05T08:26:23.425Z,6.54
2023-03-05T08:28:51.216Z,6.61
2023-03-05T08:31:21.428Z,6.64
2023-03-05T08:33:50.080Z,6.54
2023-03-05T08:36:16.973Z,6.57
2023-03-05T08:38:44.896Z,6.57
2023-03-05T08:41:11.892Z,6.60
2023-03-05T08:43:39.267Z,6.53
2023-03-05T08:46:06.500Z,6.51
2023-03-05T08:48:34.695Z,6.43
2023-03-05T08:51:13.909Z,6.39
2023-03-05T08:53:42.418Z,6.41
2023-03-05T08:56:09.547Z,6.42
2023-03-05T08:58:37.092Z,6.48
2023-03-05T09:01:04.355Z,6.59
2023-03-05T09:03:31.339Z,6.59
2023-03-05T09:06:03.076Z,6.67
2023-03-05T09:08:30.720Z,6.71
2023-03-05T09:10:57.758Z,6.88
2023-03-05T09:13:24.845Z,6.98
2023-03-05T09:16:00.286Z,7.04
2023-03-05T09:18:27.817Z,7.07
2023-03-05T09:20:54.937Z,7.07
2023-03-05T09:23:22.801Z,7.34
2023-03-05T09:25:50.188Z,7.42
2023-03-05T09:28:17.738Z,7.54
2023-03-05T09:30:44.587Z,7.65
2023-03-05T09:33:11.616Z,7.67
2023-03-05T09:35:38.592Z,7.50
2023-03-05T09:38:05.545Z,7.63
2023-03-05T09:40:44.241Z,7.71
2023-03-05T09:43:34.845Z,7.73
2023-03-05T09:46:40.153Z,7.64
2023-03-05T09:49:31.815Z,7.69
2023-03-05T09:52:18.273Z,7.72
2023-03-05T09:54:49.495Z,7.67
2023-03-05T09:57:22.664Z,7.72
2023-03-05T10:00:04.330Z,7.65
2023-03-05T10:02:46.261Z,7.77
2023-03-05T10:05:28.992Z,7.82
2023-03-05T10:08:01.269Z,7.75
2023-03-05T10:10:40.916Z,7.80
2023-03-05T10:13:17.073Z,7.93
2023-03-05T10:15:58.956Z,8.08
2023-03-05T10:18:59.856Z,8.18
2023-03-05T10:22:13.169Z,8.36
2023-03-05T10:24:51.915Z,8.46
2023-03-05T10:27:43.136Z,8.38
2023-03-05T10:30:24.007Z,8.28
2023-03-05T10:33:11.448Z,8.20
2023-03-05T10:36:01.354Z,8.19
2023-03-05T10:38:40.037Z,8.27
2023-03-05T10:41:19.091Z,8.41
2023-03-05T10:43:55.527Z,8.65
2023-03-05T10:46:28.364Z,8.81
2023-03-05T10:49:02.992Z,8.71
2023-03-05T10:51:48.106Z,8.65
2023-03-05T10:54:36.088Z,8.92
2023-03-05T10:57:03.791Z,8.91
2023-03-05T10:59:32.174Z,9.08
2023-03-05T11:02:05.763Z,9.06
2023-03-05T11:04:36.809Z,9.14
2023-03-05T11:07:27.132Z,9.08
2023-03-05T11:10:15.429Z,9.13
2023-03-05T11:12:42.829Z,8.94
2023-03-05T11:15:09.620Z,8.85
2023-03-05T11:17:39.690Z,8.73
2023-03-05T11:20:29.009Z,8.69
2023-03-05T11:23:06.042Z,8.62
2023-03-05T11:25:34.888Z,8.51
2023-03-05T11:28:04.368Z,8.52
2023-03-05T11:30:35.535Z,8.43
2023-03-05T11:33:22.782Z,8.25
2023-03-05T11:35:52.053Z,8.16
2023-03-05T11:38:28.453Z,8.10
2023-03-05T11:40:57.409Z,8.04
2023-03-05T11:43:26.239Z,8.02
2023-03-05T11:46:02.549Z,8.08
2023-03-05T11:48:35.246Z,8.29
2023-03-05T11:51:08.528Z,8.41
2023-03-05T11:53:37.360Z,8.54
2023-03-05T11:56:35.013Z,8.66
2023-03-05T11:59:34.936Z,8.65
2023-03-05T12:02:01.933Z,8.47
2023-03-05T12:04:32.706Z,8.71
2023-03-05T12:07:04.309Z,8.91
2023-03-05T12:09:42.204Z,9.17
2023-03-05T12:13:02.607Z,9.07
2023-03-05T12:16:05.006Z,9.08
2023-03-05T12:19:08.156Z,9.02
2023-03-05T12:21:43.350Z,8.90
2023-03-05T12:24:28.002Z,8.87
2023-03-05T12:27:08.516Z,8.85
2023-03-05T12:29:52.012Z,8.89
2023-03-05T12:32:34.124Z,9.10
2023-03-05T12:35:06.609Z,9.22
2023-03-05T12:37:33.885Z,9.19
2023-03-05T12:40:19.923Z,9.07
2023-03-05T12:42:48.138Z,8.87
2023-03-05T12:45:16.388Z,8.72
2023-03-05T12:47:45.367Z,8.97
2023-03-05T12:50:27.390Z,9.24
2023-03-05T12:52:56.218Z,9.34
2023-03-05T12:55:33.713Z,9.36
2023-03-05T12:58:23.978Z,9.30
2023-03-05T13:01:02.700Z,9.36
2023-03-05T13:03:35.641Z,9.31
2023-03-05T13:06:08.302Z,9.19
2023-03-05T13:08:37.482Z,9.00
2023-03-05T13:11:08.416Z,8.88
2023-03-05T13:13:43.492Z,8.93
2023-03-05T13:16:25.134Z,8.85
2023-03-05T13:18:54.254Z,8.75
2023-03-05T13:21:27.153Z,8.78
2023-03-05T13:23:59.571Z,8.81
2023-03-05T13:26:38.366Z,8.81
2023-03-05T13:29:14.340Z,8.80
2023-03-05T13:31:45.142Z,8.86
2023-03-05T13:34:20.713Z,9.14
2023-03-05T13:36:54.739Z,9.49
2023-03-05T13:39:26.257Z,9.71
2023-03-05T13:42:15.821Z,9.72
2023-03-05T13:44:42.938Z,9.47
2023-03-05T13:47:19.034Z,9.28
2023-03-05T13:49:47.542Z,9.20
2023-03-05T13:55:19.309Z,8.89
2023-03-05T13:57:51.126Z,8.83
2023-03-05T14:00:39.821Z,8.80
2023-03-05T14:03:22.877Z,8.73
2023-03-05T14:05:53.208Z,8.61
2023-03-05T14:08:26.681Z,8.55
2023-03-05T14:11:15.846Z,8.45
2023-03-05T14:13:44.041Z,8.42
2023-03-05T14:16:14.887Z,8.40
2023-03-05T14:19:00.535Z,8.27
2023-03-05T14:21:44.280Z,8.24
2023-03-05T14:24:23.737Z,8.25
2023-03-05T14:26:58.584Z,8.24
2023-03-05T14:29:27.614Z,8.24
2023-03-05T14:31:57.369Z,8.21
2023-03-05T14:34:32.382Z,8.18
2023-03-05T14:37:03.651Z,8.16
2023-03-05T14:39:41.424Z,8.11
2023-03-05T14:42:28.297Z,8.07
2023-03-05T14:44:56.901Z,7.99
2023-03-05T14:47:24.903Z,7.98
2023-03-05T14:49:52.064Z,7.89
2023-03-05T14:52:21.195Z,7.84
2023-03-05T14:54:48.558Z,7.86
2023-03-05T14:57:21.257Z,7.86
2023-03-05T14:59:48.523Z,7.79
2023-03-05T15:02:19.842Z,7.83
2023-03-05T15:04:47.681Z,7.85
2023-03-05T15:07:21.698Z,7.83
2023-03-05T15:09:48.714Z,7.81
2023-03-05T15:12:16.665Z,7.77
2023-03-05T15:14:44.091Z,7.71
2023-03-05T15:17:17.847Z,7.66
2023-03-05T15:19:46.064Z,7.59
2023-03-05T15:22:14.170Z,7.56
2023-03-05T15:24:41.822Z,7.55
2023-03-05T15:27:09.390Z,7.47
2023-03-05T15:29:36.228Z,7.45
2023-03-05T15:32:05.087Z,7.37
2023-03-05T15:34:34.397Z,7.27
2023-03-05T15:37:02.847Z,7.24
2023-03-05T15:39:30.118Z,7.19
2023-03-05T15:41:58.172Z,7.17
2023-03-05T15:44:25.422Z,7.19
2023-03-05T15:46:52.456Z,7.08
2023-03-05T15:49:23.358Z,7.05
2023-03-05T15:51:51.263Z,7.04
2023-03-05T15:54:19.610Z,7.01
2023-03-05T15:56:46.693Z,7.03
2023-03-05T15:59:14.512Z,6.95
2023-03-05T16:01:48.230Z,6.88
2023-03-05T16:04:16.576Z,6.88
2023-03-05T16:06:46.360Z,6.79
2023-03-05T16:09:14.077Z,6.76
2023-03-05T16:11:48.099Z,6.63
2023-03-05T16:14:20.089Z,6.69
2023-03-05T16:16:48.006Z,6.63
2023-03-05T16:19:18.976Z,6.59
2023-03-05T16:21:46.821Z,6.54
2023-03-05T16:24:16.060Z,6.43
2023-03-05T16:26:43.483Z,6.42
2023-03-05T16:29:11.874Z,6.35
2023-03-05T16:31:43.300Z,6.33
2023-03-05T16:34:14.225Z,6.30
2023-03-05T16:36:49.048Z,6.11
2023-03-05T16:39:16.051Z,6.07
2023-03-05T16:41:42.957Z,6.04
2023-03-05T16:44:11.053Z,5.93
2023-03-05T16:46:39.038Z,5.90
2023-03-05T16:49:05.996Z,5.90
2023-03-05T16:51:33.082Z,5.85
2023-03-05T16:54:02.030Z,5.81
2023-03-05T16:56:28.989Z,5.78
2023-03-05T16:58:56.642Z,5.66
2023-03-05T17:01:24.449Z,5.66
2023-03-05T17:03:52.705Z,5.56
2023-03-05T17:06:28.646Z,5.48
2023-03-05T17:08:56.564Z,5.40
2023-03-05T17:11:25.995Z,5.43
2023-03-05T17:13:54.082Z,5.41
2023-03-05T17:16:22.348Z,5.36
2023-03-05T17:18:49.577Z,5.34
2023-03-05T17:21:16.657Z,5.30
2023-03-05T17:23:45.476Z,5.26
2023-03-05T17:26:15.557Z,5.12
2023-03-05T17:28:44.500Z,5.14
2023-03-05T17:31:12.833Z,5.07
2023-03-05T17:33:41.762Z,5.01
2023-03-05T17:36:18.394Z,4.97
2023-03-05T17:38:46.646Z,4.95
2023-03-05T17:41:14.614Z,4.93
2023-03-05T17:43:41.954Z,4.80
2023-03-05T17:46:09.123Z,4.92
2023-03-05T17:48:39.452Z,4.84
2023-03-05T17:51:07.905Z,4.82
2023-03-05T17:53:35.623Z,4.78
2023-03-05T17:56:07.094Z,4.73
2023-03-05T17:58:34.041Z,4.75
2023-03-05T18:01:01.003Z,4.65
2023-03-05T18:03:28.070Z,4.65
2023-03-05T18:05:55.037Z,4.62
2023-03-05T18:08:22.022Z,4.67
2023-03-05T18:10:49.305Z,4.60
2023-03-05T18:13:16.744Z,4.53
2023-03-05T18:15:47.900Z,4.52
2023-03-05T18:18:18.957Z,4.47
2023-03-05T18:20:46.427Z,4.39
2023-03-05T18:23:13.350Z,4.38
2023-03-05T18:25:40.302Z,4.36
2023-03-05T18:28:13.179Z,4.30
2023-03-05T18:30:41.569Z,4.28
2023-03-05T18:33:13.828Z,4.23
2023-03-05T18:35:40.758Z,4.24
2023-03-05T18:38:08.189Z,4.12
2023-03-05T18:40:37.308Z,4.17
2023-03-05T18:43:05.484Z,4.20
2023-03-05T18:45:34.357Z,4.18
2023-03-05T18:48:01.838Z,4.14
2023-03-05T18:50:29.669Z,4.11
2023-03-05T18:52:56.784Z,4.04
2023-03-05T18:55:27.192Z,4.05
2023-03-05T18:57:54.336Z,3.96
2023-03-05T19:00:24.348Z,3.97
2023-03-05T19:02:51.811Z,3.89
2023-03-05T19:05:19.429Z,3.91
2023-03-05T19:07:47.256Z,3.88
2023-03-05T19:10:15.724Z,3.84
2023-03-05T19:13:05.773Z,3.80
2023-03-05T19:15:43.229Z,3.77
2023-03-05T19:18:10.384Z,3.67
2023-03-05T19:20:37.757Z,3.71
2023-03-05T19:23:04.603Z,3.69
2023-03-05T19:25:31.849Z,3.67
2023-03-05T19:27:58.659Z,3.67
2023-03-05T19:30:25.564Z,3.64
2023-03-05T19:32:52.422Z,3.58
2023-03-05T19:35:19.357Z,3.54
2023-03-05T19:37:46.673Z,3.49
2023-03-05T19:40:15.077Z,3.48
2023-03-05T19:42:42.395Z,3.51
2023-03-05T19:45:10.134Z,3.46
2023-03-05T19:47:37.124Z,3.41
2023-03-05T19:50:05.617Z,3.41
2023-03-05T19:52:33.565Z,3.40
2023-03-05T19:55:00.818Z,3.37
2023-03-05T19:57:27.767Z,3.36
2023-03-05T19:59:54.573Z,3.36
2023-03-05T20:02:22.066Z,3.31
2023-03-05T20:04:49.648Z,3.28
2023-03-05T20:07:16.965Z,3.27
2023-03-05T20:09:43.969Z,3.22
2023-03-05T20:12:10.923Z,3.23
2023-03-05T20:14:38.049Z,3.16
2023-03-05T20:17:04.905Z,3.11
2023-03-05T20:19:32.004Z,3.05
2023-03-05T20:22:02.128Z,3.00
2023-03-05T20:24:29.075Z,2.89
2023-03-05T20:26:56.008Z,2.92
2023-03-05T20:29:22.872Z,2.87
2023-03-05T20:31:50.380Z,2.74
2023-03-05T20:34:19.055Z,2.80
2023-03-05T20:36:46.726Z,2.80
2023-03-05T20:39:13.708Z,2.75
2023-03-05T20:41:40.986Z,2.64
2023-03-05T20:44:08.759Z,2.65
2023-03-05T20:46:49.771Z,2.65
2023-03-05T20:49:19.931Z,2.65
2023-03-05T20:51:49.321Z,2.61
2023-03-05T20:54:16.318Z,2.56
2023-03-05T20:56:44.009Z,2.49
2023-03-05T20:59:11.490Z,2.44
2023-03-05T21:01:41.018Z,2.46
2023-03-05T21:04:08.963Z,2.40
2023-03-05T21:06:36.403Z,2.32
2023-03-05T21:09:04.216Z,2.29
2023-03-05T21:11:32.195Z,2.25
2023-03-05T21:13:59.508Z,2.27
2023-03-05T21:16:27.551Z,2.27
2023-03-05T21:18:56.131Z,2.23
2023-03-05T21:21:24.098Z,2.25
2023-03-05T21:23:51.386Z,2.17
2023-03-05T21:26:18.292Z,2.20
2023-03-05T21:28:46.578Z,2.09
2023-03-05T21:31:23.402Z,2.01
2023-03-05T21:33:51.524Z,1.96
2023-03-05T21:36:18.998Z,1.98
2023-03-05T21:38:47.294Z,1.99
2023-03-05T21:41:14.508Z,2.01
2023-03-05T21:43:43.175Z,2.01
2023-03-05T21:46:11.368Z,2.01
2023-03-05T21:48:38.487Z,1.99
2023-03-05T21:51:51.198Z,1.99
2023-03-05T21:54:18.096Z,1.92
2023-03-05T21:56:45.899Z,1.91
2023-03-05T21:59:12.939Z,1.89
2023-03-05T22:01:39.804Z,1.83
2023-03-05T22:04:06.694Z,1.88
2023-03-05T22:06:33.893Z,1.82
2023-03-05T22:09:01.216Z,1.83
2023-03-05T22:11:29.488Z,1.81
2023-03-05T22:13:57.156Z,1.78
2023-03-05T22:16:26.322Z,1.79
2023-03-05T22:18:53.576Z,1.76
2023-03-05T22:21:25.392Z,1.68
2023-03-05T22:23:54.344Z,1.74
2023-03-05T22:26:21.541Z,1.76
2023-03-05T22:28:48.384Z,1.73
2023-03-05T22:31:27.462Z,1.79
2023-03-05T22:33:54.676Z,1.82
2023-03-05T22:36:21.647Z,1.79
2023-03-05T22:38:48.528Z,1.77
2023-03-05T22:41:19.842Z,1.84
2023-03-05T22:43:47.526Z,1.84
2023-03-05T22:46:15.624Z,1.83
2023-03-05T22:48:43.428Z,1.70
2023-03-05T22:51:11.478Z,1.78
2023-03-05T22:53:39.594Z,1.78
2023-03-05T22:56:12.752Z,1.76
2023-03-05T22:58:40.263Z,1.74
2023-03-05T23:01:18.152Z,1.76
2023-03-05T23:04:11.468Z,1.72
2023-03-05T23:06:51.238Z,1.67
2023-03-05T23:09:18.139Z,1.63
2023-03-05T23:11:44.992Z,1.65
2023-03-05T23:14:12.067Z,1.60
2023-03-05T23:16:39.140Z,1.69
2023-03-05T23:19:05.995Z,1.69
2023-03-05T23:21:33.103Z,1.65
2023-03-05T23:24:00.034Z,1.70
2023-03-05T23:26:26.934Z,1.72
2023-03-05T23:28:53.772Z,1.70
2023-03-05T23:31:20.800Z,1.63
2023-03-05T23:33:47.684Z,1.67
2023-03-05T23:36:14.586Z,1.62
2023-03-05T23:38:41.838Z,1.55
2023-03-05T23:41:09.690Z,1.57
2023-03-05T23:43:36.587Z,1.58
2023-03-05T23:46:03.505Z,1.54
2023-03-05T23:48:31.147Z,1.53
2023-03-05T23:50:58.115Z,1.49
2023-03-05T23:53:27.825Z,1.49
2023-03-05T23:55:56.069Z,1.49
2023-03-05T23:58:24.146Z,1.50
